createdAt,value
2024-03-12T00:00:37.216Z,1.80
2024-03-12T00:02:40.072Z,3.80
2024-03-12T00:04:42.527Z,1.98
2024-03-12T00:06:44.221Z,2.17
2024-03-12T00:08:49.854Z,1.80
2024-03-12T00:10:52.743Z,2.25
2024-03-12T00:13:00.154Z,2.78
2024-03-12T00:15:06.360Z,2.25
2024-03-12T00:17:09.640Z,2.85
2024-03-12T00:19:14.368Z,3.03
2024-03-12T00:21:19.881Z,3.13
2024-03-12T00:23:25.467Z,2.13
2024-03-12T00:25:30.628Z,2.67
2024-03-12T00:27:32.402Z,2.75
2024-03-12T00:29:36.978Z,1.77
2024-03-12T00:31:40.138Z,2.15
2024-03-12T00:33:43.643Z,3.50
2024-03-12T00:35:47.556Z,1.70
2024-03-12T00:37:49.371Z,3.92
2024-03-12T00:39:51.579Z,1.92
2024-03-12T00:41:53.601Z,2.35
2024-03-12T00:43:55.946Z,2.70
2024-03-12T00:45:58.759Z,2.05
2024-03-12T00:48:00.579Z,3.20
2024-03-12T00:50:02.270Z,3.35
2024-03-12T00:52:07.043Z,2.85
2024-03-12T00:54:09.106Z,2.55
2024-03-12T00:56:10.780Z,2.13
2024-03-12T00:58:13.866Z,3.03
2024-03-12T01:00:20.300Z,2.45
2024-03-12T01:02:22.959Z,4.35
2024-03-12T01:04:25.292Z,3.08
2024-03-12T01:06:27.687Z,2.28
2024-03-12T01:08:30.334Z,1.98
2024-03-12T01:10:34.308Z,1.95
2024-03-12T01:12:38.247Z,2.03
2024-03-12T01:14:46.222Z,2.90
2024-03-12T01:16:51.029Z,3.72
2024-03-12T01:18:55.878Z,2.35
2024-03-12T01:20:59.582Z,2.20
2024-03-12T01:23:04.344Z,3.17
2024-03-12T01:25:10.321Z,2.67
2024-03-12T01:27:15.950Z,2.63
2024-03-12T01:29:18.346Z,2.17
2024-03-12T01:31:28.871Z,3.55
2024-03-12T01:33:33.205Z,3.10
2024-03-12T01:35:40.950Z,2.15
2024-03-12T01:37:53.239Z,3.13
2024-03-12T01:39:55.251Z,2.67
2024-03-12T01:41:57.151Z,2.42
2024-03-12T01:44:04.558Z,2.33
2024-03-12T01:46:08.719Z,2.47
2024-03-12T01:48:12.803Z,3.10
2024-03-12T01:50:19.614Z,3.08
2024-03-12T01:52:24.464Z,2.67
2024-03-12T01:54:28.828Z,2.63
2024-03-12T01:56:33.508Z,2.95
2024-03-12T01:58:42.646Z,3.10
2024-03-12T02:00:46.362Z,2.70
2024-03-12T02:02:54.035Z,2.58
2024-03-12T02:04:56.724Z,4.20
2024-03-12T02:07:01.258Z,2.92
2024-03-12T02:09:06.707Z,1.83
2024-03-12T02:11:10.205Z,2.72
2024-03-12T02:13:12.709Z,2.72
2024-03-12T02:15:19.434Z,3.35
2024-03-12T02:17:23.583Z,3.88
2024-03-12T02:19:25.758Z,3.70
2024-03-12T02:21:27.535Z,3.08
2024-03-12T02:23:47.823Z,2.50
2024-03-12T02:25:51.193Z,1.73
2024-03-12T02:27:54.244Z,2.35
2024-03-12T02:29:56.515Z,2.85
2024-03-12T02:31:58.213Z,3.53
2024-03-12T02:34:00.290Z,2.10
2024-03-12T02:36:02.253Z,2.72
2024-03-12T02:38:04.072Z,1.90
2024-03-12T02:40:15.202Z,1.95
2024-03-12T02:42:18.190Z,2.13
2024-03-12T02:44:23.002Z,3.28
2024-03-12T02:46:24.909Z,2.83
2024-03-12T02:48:29.148Z,2.42
2024-03-12T02:50:31.097Z,2.03
2024-03-12T02:52:32.781Z,3.53
2024-03-12T02:54:34.508Z,2.95
2024-03-12T02:56:36.473Z,3.00
2024-03-12T02:58:38.249Z,3.60
2024-03-12T03:00:40.162Z,3.20
2024-03-12T03:02:42.848Z,2.85
2024-03-12T03:04:44.699Z,1.70
2024-03-12T03:06:46.473Z,2.53
2024-03-12T03:08:48.365Z,2.90
2024-03-12T03:10:55.088Z,3.05
2024-03-12T03:12:57.508Z,2.05
2024-03-12T03:15:02.887Z,2.65
2024-03-12T03:17:08.896Z,2.70
2024-03-12T03:19:13.698Z,3.85
2024-03-12T03:21:18.133Z,2.47
2024-03-12T03:23:22.429Z,2.47
2024-03-12T03:25:24.309Z,2.63
2024-03-12T03:27:26.027Z,4.85
2024-03-12T03:29:32.964Z,3.25
2024-03-12T03:31:35.131Z,2.42
2024-03-12T03:33:36.885Z,2.08
2024-03-12T03:35:39.284Z,2.60
2024-03-12T03:37:43.281Z,2.78
2024-03-12T03:39:45.003Z,2.55
2024-03-12T03:41:46.705Z,3.05
2024-03-12T03:43:48.701Z,2.90
2024-03-12T03:45:50.394Z,2.53
2024-03-12T03:47:52.609Z,2.65
2024-03-12T03:49:54.653Z,3.58
2024-03-12T03:51:56.935Z,3.58
2024-03-12T03:54:02.290Z,2.50
2024-03-12T03:56:04.343Z,4.13
2024-03-12T03:58:07.824Z,3.65
2024-03-12T04:00:16.878Z,2.30
2024-03-12T04:02:19.851Z,2.00
2024-03-12T04:04:22.060Z,3.58
2024-03-12T04:06:24.845Z,2.83
2024-03-12T04:08:26.525Z,3.03
2024-03-12T04:10:31.818Z,2.17
2024-03-12T04:12:35.478Z,3.13
2024-03-12T04:14:40.483Z,2.17
2024-03-12T04:16:42.190Z,5.10
2024-03-12T04:18:45.866Z,2.60
2024-03-12T04:20:48.984Z,3.25
2024-03-12T04:22:51.092Z,3.28
2024-03-12T04:24:52.814Z,2.53
2024-03-12T04:26:54.594Z,2.35
2024-03-12T04:28:56.453Z,2.75
2024-03-12T04:30:58.246Z,2.30
2024-03-12T04:33:00.002Z,2.05
2024-03-12T04:35:01.713Z,2.67
2024-03-12T04:37:05.610Z,4.00
2024-03-12T04:39:26.360Z,3.92
2024-03-12T04:41:28.087Z,4.50
2024-03-12T04:43:29.751Z,2.80
2024-03-12T04:45:31.513Z,2.58
2024-03-12T04:47:34.452Z,3.10
2024-03-12T04:49:38.625Z,4.03
2024-03-12T04:51:42.148Z,4.25
2024-03-12T04:53:43.952Z,3.78
2024-03-12T04:55:47.057Z,2.92
2024-03-12T04:57:48.904Z,1.83
2024-03-12T04:59:50.911Z,3.17
2024-03-12T05:01:54.167Z,4.15
2024-03-12T05:03:59.667Z,4.20
2024-03-12T05:06:04.504Z,5.15
2024-03-12T05:08:06.709Z,2.97
2024-03-12T05:10:10.437Z,3.00
2024-03-12T05:12:15.016Z,4.20
2024-03-12T05:14:19.848Z,3.35
2024-03-12T05:16:26.709Z,2.92
2024-03-12T05:18:31.278Z,5.30
2024-03-12T05:20:37.511Z,5.10
2024-03-12T05:22:39.578Z,3.70
2024-03-12T05:24:42.184Z,3.60
2024-03-12T05:26:45.802Z,6.35
2024-03-12T05:28:48.434Z,4.68
2024-03-12T05:30:50.882Z,3.55
2024-03-12T05:32:55.632Z,3.97
2024-03-12T05:35:00.681Z,3.40
2024-03-12T05:37:05.763Z,2.78
2024-03-12T05:39:38.879Z,4.50
2024-03-12T05:41:50.452Z,2.85
2024-03-12T05:44:10.928Z,4.03
2024-03-12T05:48:33.183Z,4.28
2024-03-12T05:50:34.942Z,4.40
2024-03-12T05:52:36.853Z,3.25
2024-03-12T05:54:38.631Z,4.05
2024-03-12T05:56:40.820Z,3.50
2024-03-12T05:58:42.812Z,4.40
2024-03-12T06:00:46.542Z,5.88
2024-03-12T06:02:48.284Z,3.72
2024-03-12T06:04:50.370Z,3.60
2024-03-12T06:06:52.692Z,4.15
2024-03-12T06:08:54.391Z,3.90
2024-03-12T06:10:56.564Z,2.90
2024-03-12T06:12:58.224Z,2.28
2024-03-12T06:15:02.698Z,3.45
2024-03-12T06:17:08.832Z,2.63
2024-03-12T06:19:12.799Z,4.35
2024-03-12T06:21:17.743Z,3.75
2024-03-12T06:23:27.145Z,3.75
2024-03-12T06:25:32.151Z,3.10
2024-03-12T06:27:35.536Z,3.35
2024-03-12T06:29:40.283Z,3.03
2024-03-12T06:31:47.909Z,2.58
2024-03-12T06:33:53.736Z,2.78
2024-03-12T06:35:58.193Z,2.80
2024-03-12T06:38:06.440Z,2.72
2024-03-12T06:40:09.974Z,2.40
2024-03-12T06:42:14.541Z,3.40
2024-03-12T06:44:20.546Z,2.83
2024-03-12T06:46:29.510Z,3.60
2024-03-12T06:48:33.798Z,4.05
2024-03-12T06:50:37.490Z,3.13
2024-03-12T06:52:39.562Z,3.22
2024-03-12T06:54:41.430Z,3.42
2024-03-12T06:56:44.603Z,3.08
2024-03-12T06:58:47.066Z,4.15
2024-03-12T07:00:52.369Z,3.95
2024-03-12T07:02:55.288Z,4.38
2024-03-12T07:04:56.969Z,4.78
2024-03-12T07:06:58.705Z,4.85
2024-03-12T07:09:04.944Z,4.40
2024-03-12T07:11:08.818Z,4.10
2024-03-12T07:13:11.589Z,4.07
2024-03-12T07:15:13.378Z,3.83
2024-03-12T07:17:15.898Z,4.90
2024-03-12T07:19:17.889Z,4.80
2024-03-12T07:21:20.113Z,5.72
2024-03-12T07:23:22.075Z,4.05
2024-03-12T07:25:24.001Z,4.40
2024-03-12T07:27:25.720Z,3.13
2024-03-12T07:29:27.724Z,4.68
2024-03-12T07:31:30.377Z,3.40
2024-03-12T07:33:32.129Z,5.07
2024-03-12T07:35:36.697Z,3.83
2024-03-12T07:37:40.058Z,3.20
2024-03-12T07:39:43.365Z,4.10
2024-03-12T07:41:45.115Z,4.68
2024-03-12T07:43:47.008Z,3.38
2024-03-12T07:45:49.098Z,3.35
2024-03-12T07:47:52.274Z,5.15
2024-03-12T07:49:54.986Z,4.03
2024-03-12T07:51:56.808Z,3.22
2024-03-12T07:54:00.967Z,3.60
2024-03-12T07:56:02.919Z,2.60
2024-03-12T07:58:08.064Z,3.67
2024-03-12T08:00:16.531Z,2.70
2024-03-12T08:02:23.934Z,2.97
2024-03-12T08:04:29.077Z,3.20
2024-03-12T08:06:34.324Z,3.00
2024-03-12T08:08:38.559Z,3.28
2024-03-12T08:10:43.081Z,3.30
2024-03-12T08:12:47.807Z,3.45
2024-03-12T08:14:56.925Z,2.40
2024-03-12T08:16:59.817Z,2.72
2024-03-12T08:19:04.520Z,2.90
2024-03-12T08:21:13.897Z,2.35
2024-03-12T08:23:21.435Z,2.97
2024-03-12T08:25:23.707Z,3.25
2024-03-12T08:27:28.417Z,3.15
2024-03-12T08:29:32.986Z,3.58
2024-03-12T08:31:41.229Z,4.13
2024-03-12T08:33:46.610Z,3.80
2024-03-12T08:35:51.017Z,4.45
2024-03-12T08:37:55.885Z,9.40
2024-03-12T08:40:01.017Z,3.80
2024-03-12T08:42:05.386Z,7.45
2024-03-12T08:44:15.180Z,4.40
2024-03-12T08:46:20.401Z,8.73
2024-03-12T08:48:24.887Z,6.68
2024-03-12T08:50:29.979Z,12.23
2024-03-12T08:52:36.969Z,7.13
2024-03-12T08:54:41.802Z,11.05
2024-03-12T08:56:47.057Z,8.98
2024-03-12T08:58:51.673Z,7.03
2024-03-12T09:00:58.970Z,6.22
2024-03-12T09:03:03.986Z,7.15
2024-03-12T09:05:11.020Z,9.38
2024-03-12T09:07:14.515Z,9.50
2024-03-12T09:09:19.775Z,7.40
2024-03-12T09:11:24.369Z,8.63
2024-03-12T09:13:29.764Z,6.18
2024-03-12T09:15:38.854Z,7.13
2024-03-12T09:17:44.475Z,9.70
2024-03-12T09:19:50.509Z,10.68
2024-03-12T09:21:52.460Z,10.63
2024-03-12T09:24:01.569Z,9.48
2024-03-12T09:26:05.535Z,9.80
2024-03-12T09:28:07.250Z,9.05
2024-03-12T09:30:09.450Z,7.80
2024-03-12T09:32:11.352Z,9.07
2024-03-12T09:34:13.770Z,7.53
2024-03-12T09:36:15.913Z,7.65
2024-03-12T09:38:18.323Z,8.50
2024-03-12T09:40:20.337Z,8.25
2024-03-12T09:42:27.510Z,7.85
2024-03-12T09:44:29.457Z,6.32
2024-03-12T09:46:31.755Z,6.72
2024-03-12T09:48:35.076Z,5.97
2024-03-12T09:50:37.130Z,5.90
2024-03-12T09:52:40.654Z,5.53
2024-03-12T09:54:42.468Z,5.30
2024-03-12T09:56:44.447Z,6.95
2024-03-12T09:58:46.501Z,4.45
2024-03-12T10:00:48.599Z,4.22
2024-03-12T10:02:51.316Z,5.60
2024-03-12T10:04:53.131Z,5.03
2024-03-12T10:06:54.929Z,5.05
2024-03-12T10:08:59.038Z,4.95
2024-03-12T10:11:03.802Z,4.45
2024-03-12T10:13:14.376Z,7.88
2024-03-12T10:15:16.392Z,4.22
2024-03-12T10:17:18.690Z,6.13
2024-03-12T10:19:26.974Z,5.00
2024-03-12T10:21:30.681Z,4.97
2024-03-12T10:23:35.175Z,5.25
2024-03-12T10:25:38.038Z,4.13
2024-03-12T10:28:06.742Z,4.03
2024-03-12T10:30:25.733Z,6.97
2024-03-12T10:32:28.017Z,5.05
2024-03-12T10:34:29.832Z,11.85
2024-03-12T10:36:33.365Z,6.55
2024-03-12T10:38:36.724Z,7.10
2024-03-12T10:40:40.097Z,5.97
2024-03-12T10:42:54.734Z,6.85
2024-03-12T10:44:58.809Z,5.07
2024-03-12T10:47:02.144Z,4.35
2024-03-12T10:49:09.260Z,5.30
2024-03-12T10:51:14.879Z,4.22
2024-03-12T10:53:17.726Z,6.53
2024-03-12T10:55:22.647Z,5.40
2024-03-12T10:57:24.620Z,5.47
2024-03-12T10:59:33.184Z,5.40
2024-03-12T11:01:36.991Z,7.68
2024-03-12T11:03:39.119Z,7.45
2024-03-12T11:05:43.639Z,5.78
2024-03-12T11:07:46.187Z,10.15
2024-03-12T11:09:48.288Z,10.30
2024-03-12T11:11:50.911Z,7.97
2024-03-12T11:13:57.955Z,8.68
2024-03-12T11:16:02.720Z,8.15
2024-03-12T11:18:06.865Z,13.13
2024-03-12T11:20:13.819Z,13.10
2024-03-12T11:22:18.503Z,10.93
2024-03-12T11:24:31.307Z,9.02
2024-03-12T11:26:37.098Z,14.52
2024-03-12T11:28:50.409Z,12.15
2024-03-12T11:31:06.006Z,14.57
2024-03-12T11:33:07.964Z,14.90
2024-03-12T11:35:30.485Z,13.35
2024-03-12T11:37:32.149Z,11.70
2024-03-12T11:39:35.132Z,24.20
2024-03-12T11:42:12.328Z,25.80
2024-03-12T11:44:43.134Z,14.10
2024-03-12T11:46:45.661Z,13.02
2024-03-12T11:48:48.601Z,19.02
2024-03-12T11:50:56.082Z,20.60
2024-03-12T11:53:19.826Z,20.60
2024-03-12T11:55:52.511Z,19.85
2024-03-12T11:57:56.364Z,18.15
2024-03-12T12:00:00.620Z,22.70
2024-03-12T12:02:04.238Z,20.58
2024-03-12T12:04:12.909Z,18.55
2024-03-12T12:06:15.310Z,18.50
2024-03-12T12:08:17.730Z,22.38
2024-03-12T12:10:19.558Z,22.02
2024-03-12T12:12:21.802Z,23.20
2024-03-12T12:14:23.660Z,27.85
2024-03-12T12:16:26.488Z,24.30
2024-03-12T12:18:31.748Z,21.98
2024-03-12T12:20:37.692Z,23.50
2024-03-12T12:22:57.288Z,28.48
2024-03-12T12:25:01.660Z,34.20
2024-03-12T12:27:03.581Z,23.15
2024-03-12T12:29:14.880Z,30.95
2024-03-12T12:31:21.844Z,26.88
2024-03-12T12:33:27.987Z,27.00
2024-03-12T12:35:32.943Z,35.25
2024-03-12T12:37:39.075Z,33.38
2024-03-12T12:41:49.751Z,35.15
2024-03-12T12:43:54.997Z,33.13
2024-03-12T12:46:01.165Z,30.95
2024-03-12T12:48:06.407Z,35.38
2024-03-12T12:50:12.753Z,31.27
2024-03-12T12:52:17.273Z,29.10
2024-03-12T12:54:23.572Z,32.95
2024-03-12T12:56:28.263Z,31.77
2024-03-12T12:58:34.350Z,38.40
2024-03-12T13:00:39.784Z,29.65
2024-03-12T13:02:47.857Z,29.48
2024-03-12T13:04:57.851Z,25.50
2024-03-12T13:07:01.923Z,28.75
2024-03-12T13:09:05.066Z,30.35
2024-03-12T13:11:07.152Z,28.33
2024-03-12T13:13:11.869Z,30.70
2024-03-12T13:15:29.784Z,31.92
2024-03-12T13:17:31.774Z,30.23
2024-03-12T13:19:34.369Z,30.58
2024-03-12T13:21:36.189Z,33.30
2024-03-12T13:23:41.949Z,33.58
2024-03-12T13:25:46.845Z,29.92
2024-03-12T13:27:51.289Z,27.90
2024-03-12T13:29:55.810Z,31.67
2024-03-12T13:31:57.522Z,26.73
2024-03-12T13:33:59.751Z,20.67
2024-03-12T13:36:01.701Z,22.98
2024-03-12T13:38:05.633Z,26.30
2024-03-12T13:40:07.992Z,29.75
2024-03-12T13:42:11.585Z,25.83
2024-03-12T13:44:13.794Z,27.85
2024-03-12T13:46:15.993Z,26.00
2024-03-12T13:48:18.881Z,24.27
2024-03-12T13:50:20.551Z,24.88
2024-03-12T13:52:22.519Z,22.35
2024-03-12T13:54:24.293Z,24.17
2024-03-12T13:56:25.965Z,21.48
2024-03-12T13:58:28.087Z,20.85
2024-03-12T14:00:30.121Z,17.88
2024-03-12T14:02:31.906Z,21.70
2024-03-12T14:04:33.900Z,20.52
2024-03-12T14:06:36.212Z,16.50
2024-03-12T14:08:38.148Z,14.40
2024-03-12T14:10:42.321Z,17.60
2024-03-12T14:12:47.008Z,18.15
2024-03-12T14:14:49.234Z,17.70
2024-03-12T14:16:52.987Z,18.75
2024-03-12T14:18:54.920Z,17.83
2024-03-12T14:20:56.958Z,18.67
2024-03-12T14:22:58.623Z,19.83
2024-03-12T14:25:03.114Z,17.27
2024-03-12T14:27:08.724Z,19.33
2024-03-12T14:29:14.525Z,19.35
2024-03-12T14:31:23.622Z,24.45
2024-03-12T14:33:30.075Z,20.02
2024-03-12T14:35:32.867Z,24.17
2024-03-12T14:37:36.437Z,23.02
2024-03-12T14:39:38.187Z,22.52
2024-03-12T14:41:41.083Z,21.60
2024-03-12T14:43:42.988Z,25.77
2024-03-12T14:45:47.412Z,25.20
2024-03-12T14:47:49.363Z,22.60
2024-03-12T14:49:51.123Z,22.40
2024-03-12T14:51:52.877Z,22.67
2024-03-12T14:53:55.078Z,25.77
2024-03-12T14:55:57.705Z,21.63
2024-03-12T14:57:59.452Z,25.38
2024-03-12T15:00:03.116Z,23.02
2024-03-12T15:02:06.870Z,25.58
2024-03-12T15:04:08.596Z,25.23
2024-03-12T15:06:10.668Z,26.23
2024-03-12T15:08:12.366Z,26.15
2024-03-12T15:10:14.393Z,24.20
2024-03-12T15:12:17.732Z,23.98
2024-03-12T15:14:23.929Z,21.60
2024-03-12T15:16:26.888Z,26.77
2024-03-12T15:18:29.281Z,25.33
2024-03-12T15:20:34.307Z,22.98
2024-03-12T15:22:38.830Z,25.67
2024-03-12T15:24:45.156Z,25.58
2024-03-12T15:26:50.937Z,27.63
2024-03-12T15:28:55.802Z,26.60
2024-03-12T15:31:05.399Z,25.83
2024-03-12T15:33:09.929Z,24.85
2024-03-12T15:35:15.633Z,20.58
2024-03-12T15:37:19.154Z,27.80
2024-03-12T15:39:24.189Z,26.80
2024-03-12T15:41:29.760Z,27.13
2024-03-12T15:43:35.473Z,25.42
2024-03-12T15:45:44.936Z,28.15
2024-03-12T15:47:49.759Z,20.30
2024-03-12T15:49:52.995Z,24.48
2024-03-12T15:51:57.391Z,28.02
2024-03-12T15:53:59.302Z,27.73
2024-03-12T15:56:00.968Z,24.65
2024-03-12T15:58:03.015Z,26.98
2024-03-12T16:00:06.137Z,27.45
2024-03-12T16:02:07.911Z,27.65
2024-03-12T16:04:09.640Z,23.25
2024-03-12T16:06:13.002Z,25.45
2024-03-12T16:08:15.027Z,23.55
2024-03-12T16:10:17.228Z,26.33
2024-03-12T16:12:20.265Z,26.27
2024-03-12T16:14:23.079Z,28.77
2024-03-12T16:16:25.181Z,22.35
2024-03-12T16:18:27.305Z,26.63
2024-03-12T16:20:29.342Z,25.33
2024-03-12T16:22:31.061Z,24.67
2024-03-12T16:24:33.227Z,27.33
2024-03-12T16:26:35.112Z,27.27
2024-03-12T16:28:40.560Z,27.90
2024-03-12T16:30:46.142Z,25.00
2024-03-12T16:32:49.387Z,22.40
2024-03-12T16:34:53.766Z,28.08
2024-03-12T16:36:55.623Z,24.52
2024-03-12T16:38:57.666Z,23.00
2024-03-12T16:40:59.519Z,22.77
2024-03-12T16:43:01.317Z,27.50
2024-03-12T16:45:07.294Z,24.63
2024-03-12T16:47:09.405Z,22.77
2024-03-12T16:49:11.511Z,23.48
2024-03-12T16:51:16.314Z,24.23
2024-03-12T16:53:18.118Z,24.90
2024-03-12T16:55:20.601Z,24.73
2024-03-12T16:57:23.369Z,22.67
2024-03-12T16:59:25.405Z,21.60
2024-03-12T17:01:27.560Z,24.92
2024-03-12T17:03:33.373Z,28.17
2024-03-12T17:05:35.430Z,27.38
2024-03-12T17:07:37.709Z,21.95
2024-03-12T17:09:39.669Z,26.10
2024-03-12T17:11:41.726Z,23.92
2024-03-12T17:13:43.849Z,24.63
2024-03-12T17:15:47.283Z,25.50
2024-03-12T17:17:52.239Z,25.50
2024-03-12T17:19:57.002Z,34.58
2024-03-12T17:22:01.635Z,28.42
2024-03-12T17:24:03.713Z,28.13
2024-03-12T17:26:05.876Z,27.02
2024-03-12T17:28:11.434Z,27.40
2024-03-12T17:30:14.917Z,31.27
2024-03-12T17:32:16.938Z,31.45
2024-03-12T17:34:19.290Z,31.42
2024-03-12T17:36:24.187Z,31.88
2024-03-12T17:38:26.339Z,34.70
2024-03-12T17:40:29.174Z,35.03
2024-03-12T17:42:31.277Z,37.08
2024-03-12T17:44:34.909Z,33.88
2024-03-12T17:46:44.919Z,39.78
2024-03-12T17:48:46.844Z,41.85
2024-03-12T17:50:48.840Z,40.78
2024-03-12T17:52:58.657Z,39.20
2024-03-12T17:55:00.993Z,43.35
2024-03-12T17:57:04.956Z,39.50
2024-03-12T17:59:07.827Z,37.75
2024-03-12T18:01:13.083Z,41.72
2024-03-12T18:03:15.755Z,35.95
2024-03-12T18:05:20.984Z,39.67
2024-03-12T18:07:25.162Z,35.05
2024-03-12T18:09:31.588Z,36.03
2024-03-12T18:11:33.505Z,31.98
2024-03-12T18:13:36.344Z,28.08
2024-03-12T18:15:38.153Z,31.85
2024-03-12T18:17:40.707Z,29.48
2024-03-12T18:19:42.404Z,26.50
2024-03-12T18:21:45.450Z,28.80
2024-03-12T18:23:47.096Z,28.13
2024-03-12T18:25:51.453Z,26.02
2024-03-12T18:27:57.338Z,29.42
2024-03-12T18:29:59.205Z,23.02
2024-03-12T18:32:03.121Z,26.02
2024-03-12T18:34:09.206Z,22.30
2024-03-12T18:36:11.011Z,28.30
2024-03-12T18:38:13.090Z,26.60
2024-03-12T18:40:23.748Z,23.67
2024-03-12T18:42:25.753Z,25.75
2024-03-12T18:44:29.126Z,23.73
2024-03-12T18:46:34.255Z,23.00
2024-03-12T18:48:39.859Z,24.23
2024-03-12T18:50:49.207Z,21.45
2024-03-12T18:52:54.098Z,24.88
2024-03-12T18:54:59.658Z,25.33
2024-03-12T18:57:01.756Z,23.27
2024-03-12T18:59:03.912Z,23.88
2024-03-12T19:01:05.963Z,23.23
2024-03-12T19:03:15.979Z,24.67
2024-03-12T19:05:25.916Z,24.10
2024-03-12T19:07:29.709Z,27.60
2024-03-12T19:09:34.433Z,25.02
2024-03-12T19:11:36.400Z,25.35
2024-03-12T19:13:42.883Z,22.42
2024-03-12T19:15:45.855Z,27.45
2024-03-12T19:17:52.355Z,20.60
2024-03-12T19:19:54.953Z,25.13
2024-03-12T19:21:57.797Z,22.92
2024-03-12T19:24:01.557Z,24.92
2024-03-12T19:26:08.475Z,23.55
2024-03-12T19:28:10.215Z,25.02
2024-03-12T19:30:16.873Z,26.35
2024-03-12T19:32:18.781Z,25.10
2024-03-12T19:34:21.176Z,21.70
2024-03-12T19:36:28.237Z,22.50
2024-03-12T19:38:30.244Z,23.25
2024-03-12T19:40:35.974Z,24.23
2024-03-12T19:42:49.442Z,22.80
2024-03-12T19:44:52.902Z,21.63
2024-03-12T19:46:56.509Z,23.48
2024-03-12T19:48:58.680Z,21.05
2024-03-12T19:51:08.062Z,20.65
2024-03-12T19:53:10.528Z,21.75
2024-03-12T19:55:19.947Z,20.27
2024-03-12T19:57:22.239Z,18.77
2024-03-12T19:59:27.119Z,20.38
2024-03-12T20:01:33.576Z,18.33
2024-03-12T20:03:38.312Z,20.02
2024-03-12T20:05:43.514Z,16.83
2024-03-12T20:07:49.016Z,20.48
2024-03-12T20:09:53.826Z,18.48
2024-03-12T20:11:58.221Z,18.52
2024-03-12T20:14:03.761Z,20.10
2024-03-12T20:16:12.845Z,20.30
2024-03-12T20:18:16.791Z,19.42
2024-03-12T20:20:24.295Z,18.63
2024-03-12T20:22:26.815Z,20.58
2024-03-12T20:24:30.838Z,20.90
2024-03-12T20:26:32.670Z,21.10
2024-03-12T20:28:34.925Z,20.00
2024-03-12T20:30:40.196Z,22.55
2024-03-12T20:32:42.734Z,21.75
2024-03-12T20:34:44.610Z,21.42
2024-03-12T20:36:47.204Z,22.65
2024-03-12T20:38:49.892Z,23.00
2024-03-12T20:40:51.642Z,22.70
2024-03-12T20:42:54.212Z,21.40
2024-03-12T20:44:56.044Z,22.50
2024-03-12T20:46:58.551Z,17.58
2024-03-12T20:49:00.942Z,20.08
2024-03-12T20:51:04.259Z,21.92
2024-03-12T20:53:07.560Z,21.20
2024-03-12T20:55:10.081Z,19.65
2024-03-12T20:57:13.074Z,16.75
2024-03-12T20:59:19.281Z,21.83
2024-03-12T21:01:23.824Z,22.55
2024-03-12T21:03:30.445Z,20.13
2024-03-12T21:05:37.045Z,20.35
2024-03-12T21:07:39.834Z,21.58
2024-03-12T21:09:43.599Z,24.95
2024-03-12T21:11:48.672Z,38.30
2024-03-12T21:13:50.403Z,43.33
2024-03-12T21:15:52.107Z,41.55
2024-03-12T21:17:54.686Z,43.63
2024-03-12T21:19:56.407Z,40.67
2024-03-12T21:21:58.399Z,47.70
2024-03-12T21:24:00.266Z,47.10
2024-03-12T21:26:02.062Z,46.85
2024-03-12T21:28:04.457Z,49.70
2024-03-12T21:30:14.079Z,52.55
2024-03-12T21:32:15.872Z,48.15
2024-03-12T21:34:19.257Z,50.08
2024-03-12T21:36:21.287Z,50.17
2024-03-12T21:38:25.287Z,48.95
2024-03-12T21:40:28.291Z,56.42
2024-03-12T21:42:30.037Z,51.63
2024-03-12T21:44:31.690Z,57.97
2024-03-12T21:46:33.384Z,62.65
2024-03-12T21:48:35.140Z,69.93
2024-03-12T21:50:36.920Z,62.72
2024-03-12T21:52:38.583Z,62.58
2024-03-12T21:54:41.118Z,61.28
2024-03-12T21:56:44.421Z,63.92
2024-03-12T21:58:55.240Z,55.80
2024-03-12T22:00:57.157Z,56.22
2024-03-12T22:03:01.418Z,60.50
2024-03-12T22:05:07.840Z,69.40
2024-03-12T22:07:17.177Z,63.75
2024-03-12T22:09:23.257Z,67.85
2024-03-12T22:11:25.697Z,66.28
2024-03-12T22:13:32.060Z,54.92
2024-03-12T22:15:38.642Z,49.35
2024-03-12T22:17:43.658Z,38.65
2024-03-12T22:19:45.518Z,36.28
2024-03-12T22:21:50.958Z,34.95
2024-03-12T22:23:52.872Z,31.08
2024-03-12T22:25:59.040Z,28.88
2024-03-12T22:28:02.012Z,25.30
2024-03-12T22:30:04.046Z,24.70
2024-03-12T22:32:09.714Z,22.88
2024-03-12T22:34:11.478Z,21.38
2024-03-12T22:36:13.245Z,21.42
2024-03-12T22:38:15.397Z,20.25
2024-03-12T22:40:18.377Z,16.65
2024-03-12T22:42:24.126Z,18.30
2024-03-12T22:44:29.092Z,16.00
2024-03-12T22:46:31.185Z,15.23
2024-03-12T22:48:36.234Z,14.98
2024-03-12T22:50:39.198Z,15.95
2024-03-12T22:52:43.251Z,11.25
2024-03-12T22:54:45.902Z,11.55
2024-03-12T22:56:47.827Z,11.45
2024-03-12T22:58:50.280Z,10.43
2024-03-12T23:00:56.026Z,8.25
2024-03-12T23:03:02.742Z,9.60
2024-03-12T23:05:09.659Z,10.60
2024-03-12T23:07:11.654Z,9.82
2024-03-12T23:09:18.683Z,10.85
2024-03-12T23:11:26.009Z,9.45
2024-03-12T23:13:28.086Z,7.80
2024-03-12T23:15:32.146Z,7.82
2024-03-12T23:17:33.827Z,7.10
2024-03-12T23:19:44.058Z,6.28
2024-03-12T23:21:48.153Z,6.88
2024-03-12T23:23:49.887Z,7.97
2024-03-12T23:25:52.574Z,9.02
2024-03-12T23:27:56.782Z,8.98
2024-03-12T23:30:01.404Z,6.80
2024-03-12T23:32:03.090Z,7.45
2024-03-12T23:34:04.779Z,7.72
2024-03-12T23:36:07.133Z,8.35
2024-03-12T23:38:08.800Z,9.15
2024-03-12T23:40:12.342Z,8.80
2024-03-12T23:42:14.153Z,8.98
2024-03-12T23:44:15.816Z,8.05
2024-03-12T23:46:17.554Z,6.63
2024-03-12T23:48:19.697Z,7.57
2024-03-12T23:50:21.415Z,6.07
2024-03-12T23:52:23.194Z,6.70
2024-03-12T23:54:25.592Z,5.97
2024-03-12T23:56:30.687Z,6.70
2024-03-12T23:58:37.698Z,6.95
